createdAt,value
2022-10-09T02:10:48.264Z,5.65
2022-10-09T02:15:44.476Z,6.37
2022-10-09T02:20:39.218Z,5.63
2022-10-09T02:25:29.215Z,5.18
2022-10-09T02:30:24.407Z,7.25
2022-10-09T02:35:14.526Z,7.28
2022-10-09T02:40:09.738Z,8.52
2022-10-09T02:45:00.299Z,6.45
2022-10-09T02:49:52.735Z,8.52
2022-10-09T02:54:43.615Z,8.85
2022-10-09T02:59:33.819Z,8.43
2022-10-09T03:04:23.779Z,6.32
2022-10-09T03:09:16.166Z,7.43
2022-10-09T03:14:05.971Z,7.63
2022-10-09T03:18:57.240Z,6.70
2022-10-09T03:23:47.649Z,6.20
2022-10-09T03:28:47.053Z,8.87
2022-10-09T03:33:37.440Z,8.13
2022-10-09T03:38:27.438Z,5.13
2022-10-09T03:43:19.170Z,7.93
2022-10-09T03:48:13.393Z,7.53
2022-10-09T03:53:03.504Z,5.80
2022-10-09T03:57:53.169Z,6.68
2022-10-09T04:02:43.142Z,6.60
2022-10-09T04:07:35.564Z,7.22
2022-10-09T04:12:25.348Z,9.32
2022-10-09T04:17:15.232Z,7.97
2022-10-09T04:22:05.030Z,8.38
2022-10-09T04:26:57.369Z,8.88
2022-10-09T04:31:47.158Z,13.27
2022-10-09T04:36:36.901Z,12.13
2022-10-09T04:41:26.693Z,8.45
2022-10-09T04:46:19.503Z,8.20
2022-10-09T04:51:10.364Z,9.35
2022-10-09T04:56:00.087Z,10.30
2022-10-09T05:00:50.885Z,10.98
2022-10-09T05:05:43.391Z,9.23
2022-10-09T05:10:33.613Z,11.30
2022-10-09T05:15:23.399Z,10.07
2022-10-09T05:20:13.265Z,10.13
2022-10-09T05:25:05.973Z,10.10
2022-10-09T05:29:56.930Z,10.43
2022-10-09T05:34:46.629Z,10.93
2022-10-09T05:39:40.427Z,7.60
2022-10-09T05:44:32.838Z,10.23
2022-10-09T05:49:22.852Z,11.77
2022-10-09T05:54:17.175Z,12.85
2022-10-09T05:59:09.985Z,15.50
2022-10-09T06:04:04.120Z,14.60
2022-10-09T06:08:54.350Z,17.98
2022-10-09T06:13:44.818Z,15.37
2022-10-09T06:18:34.545Z,18.67
2022-10-09T06:23:27.143Z,20.25
2022-10-09T06:28:16.987Z,19.70
2022-10-09T06:33:06.923Z,18.70
2022-10-09T06:37:56.623Z,17.27
2022-10-09T06:42:49.097Z,16.92
2022-10-09T06:47:40.419Z,15.50
2022-10-09T06:52:30.067Z,16.60
2022-10-09T06:57:19.731Z,16.37
2022-10-09T07:02:12.153Z,15.73
2022-10-09T07:07:02.887Z,14.35
2022-10-09T07:11:53.169Z,15.52
2022-10-09T07:16:45.640Z,12.63
2022-10-09T07:21:38.416Z,13.35
2022-10-09T07:26:30.456Z,12.55
2022-10-09T07:31:20.598Z,15.30
2022-10-09T07:36:12.427Z,12.88
2022-10-09T07:41:12.911Z,8.57
2022-10-09T07:46:03.006Z,12.18
2022-10-09T07:50:52.991Z,11.67
2022-10-09T07:55:47.622Z,10.27
2022-10-09T08:00:40.198Z,11.43
2022-10-09T08:05:29.956Z,8.55
2022-10-09T08:10:19.734Z,6.75
2022-10-09T08:15:13.091Z,9.10
2022-10-09T08:20:05.660Z,8.75
2022-10-09T08:24:55.433Z,9.30
2022-10-09T08:29:45.151Z,8.90
2022-10-09T08:34:35.147Z,7.88
2022-10-09T08:39:30.965Z,8.23
2022-10-09T08:44:24.051Z,8.02
2022-10-09T08:49:33.673Z,8.05
2022-10-09T08:54:36.108Z,7.50
2022-10-09T08:59:25.902Z,8.30
2022-10-09T09:04:38.384Z,6.97
2022-10-09T09:09:54.755Z,4.77
2022-10-09T09:14:58.449Z,14.60
2022-10-09T09:20:01.097Z,6.13
2022-10-09T20:49:18.827Z,4.10
2022-10-09T20:54:10.037Z,3.37
2022-10-09T20:59:00.834Z,2.65
2022-10-09T21:03:50.851Z,3.38
2022-10-09T21:08:44.391Z,3.13
2022-10-09T21:13:34.162Z,4.32
2022-10-09T21:18:23.789Z,3.88
2022-10-09T21:23:15.086Z,4.03
2022-10-09T21:28:08.530Z,4.45
2022-10-09T21:32:59.026Z,3.53
2022-10-09T21:37:48.821Z,5.28
2022-10-09T21:42:39.711Z,4.75
2022-10-09T21:47:32.267Z,4.27
2022-10-09T21:52:21.975Z,3.20
2022-10-09T21:57:11.891Z,4.50
2022-10-09T22:02:02.978Z,4.13
2022-10-09T22:06:57.247Z,4.97
2022-10-09T22:11:47.239Z,4.03
2022-10-09T22:16:37.032Z,4.38
2022-10-09T22:21:28.671Z,4.43
2022-10-09T22:26:22.790Z,3.40
2022-10-09T22:31:16.027Z,4.07
2022-10-09T22:36:14.301Z,3.60
2022-10-09T22:41:09.619Z,4.57
2022-10-09T22:46:02.090Z,4.47
2022-10-09T22:50:51.861Z,3.90
2022-10-09T22:55:43.099Z,3.28
2022-10-09T23:00:33.011Z,2.63
2022-10-09T23:05:27.370Z,2.70
2022-10-09T23:10:17.221Z,4.03
2022-10-09T23:15:09.295Z,3.60
2022-10-09T23:19:59.420Z,3.83
2022-10-09T23:24:51.877Z,3.70
2022-10-09T23:29:42.150Z,3.15
2022-10-09T23:34:31.948Z,5.20
2022-10-09T23:39:21.716Z,3.50
2022-10-09T23:44:15.960Z,3.13
2022-10-09T23:49:08.171Z,5.22
2022-10-09T23:53:58.260Z,4.57
2022-10-09T23:58:48.824Z,5.13
